Latest Coastal Weather Observations for Groote Eylandt Airport

IDD60701

Issued at 3:05 am CST Saturday 26 July 2014 (issued every 10 minutes, with the page automatically refreshed every 10 minutes)

About coastal observations | Map of coastal stations | Coastal observations for NT | Marine services | Other Formats
Station Details ID: 014518 Name: GROOTE EYLANDT AIRPORT Lat: -13.97 Lon: 136.46 Height: 13.7 m
Data from the previous 72 hours. | See also: Recent months at Groote Eylandt Airport
Date/Time
CST
Temp

°C
Wind Pressure Rain
since 9am
mm
Weather Cloud Vis
km
Sea
Height
m
Swell
Dir
 
Speed
knots
Gust
knots
hPa Trend Height
m
Period
s
Dir
26/03:00am 18.1 ESE 0 4 1016.7 - 0.0 - - 10 - - - -
26/02:30am 18.6 ESE 4 4 1016.9 - 0.0 - - 10 - - - -
26/02:00am 18.7 CALM 0 0 1017.5 - 0.0 - - 10 - - - -
26/01:30am 19.2 CALM 0 0 1017.9 - 0.0 - - 10 - - - -
26/01:00am 19.3 CALM 0 0 1018.1 - 0.0 - - 10 - - - -
26/12:30am 19.3 E 3 4 1018.1 - 0.0 - - 10 - - - -
26/12:00am 19.4 E 4 5 1018.1 - 0.0 - - 10 - - - -
 
Date/Time
CST
Temp

°C
Wind Pressure Rain
since 9am
mm
Weather Cloud Vis
km
Sea
Height
m
Swell
Dir
 
Speed
knots
Gust
knots
hPa Trend Height
m
Period
s
Dir
25/11:30pm 20.3 E 3 3 1018.4 - 0.0 - - 10 - - - -
25/11:00pm 20.1 E 4 5 1018.5 - 0.0 - Partly cloudy 10 - - - -
25/10:30pm 20.5 SE 3 4 1018.7 - 0.0 - Partly cloudy 10 - - - -
25/10:00pm 20.4 ESE 3 4 1018.7 - 0.0 - - 10 - - - -
25/09:30pm 20.8 SE 4 5 1018.7 - 0.0 - - 10 - - - -
25/09:00pm 21.1 SSE 3 4 1018.5 - 0.0 - - 10 - - - -
25/08:30pm 21.7 SE 3 4 1018.3 - 0.0 - - 10 - - - -
25/08:00pm 22.6 SE 3 5 1017.9 - 0.0 - - 10 - - - -
25/07:30pm 23.1 ESE 4 5 1017.4 - 0.0 - - 10 - - - -
25/07:00pm 23.5 ESE 4 5 1017.0 - 0.0 - - 10 - - - -
25/06:30pm 24.2 ESE 4 5 1016.6 - 0.0 - Partly cloudy 10 - - - -
25/06:00pm 25.0 E 5 7 1016.0 - 0.0 - Partly cloudy 10 - - - -
25/05:30pm 25.3 ESE 4 7 1015.7 - 0.0 - Partly cloudy 10 - - - -
25/05:00pm 25.6 ESE 7 10 1015.4 - 0.0 - Partly cloudy 10 - - - -
25/04:30pm 26.2 ESE 4 6 1015.2 - 0.0 - Partly cloudy 10 - - - -
25/04:00pm 26.5 E 4 7 1015.1 - 0.0 - Partly cloudy 10 - - - -
25/03:30pm 26.5 ESE 5 8 1014.8 - 0.0 - Partly cloudy 10 - - - -
25/03:00pm 26.7 ESE 6 11 1014.8 - 0.0 - Cloudy 10 - - - -
25/02:30pm 27.4 E 7 11 1014.9 - 0.0 - Partly cloudy 10 - - - -
25/02:00pm 28.0 E 7 11 1015.2 - 0.0 - Partly cloudy 10 - - - -
25/01:30pm 29.1 E 9 16 1015.7 - 0.0 - Partly cloudy 10 - - - -
25/01:00pm 29.0 ENE 10 14 1016.0 - 0.0 - Partly cloudy 10 - - - -
25/12:30pm 28.2 ENE 10 13 1016.4 - 0.0 - Partly cloudy 10 - - - -
25/12:00pm 28.6 E 8 14 1016.8 - 0.0 - Cloudy 10 - - - -
25/11:30am 27.3 E 8 13 1017.3 - 0.0 - Partly cloudy 10 - - - -
25/11:00am 27.4 E 8 11 1017.6 - 0.0 - - 10 - - - -
25/10:30am 27.1 E 6 9 1017.6 - 0.0 - - 10 - - - -
25/10:00am 26.3 E 8 13 1017.7 - 0.0 - - 10 - - - -
25/09:30am 26.0 E 7 11 1017.5 - 0.0 - - 10 - - - -
25/09:00am 23.5 ESE 3 5 1017.2 - 0.0 - - 10 - - - -
25/08:30am 21.0 CALM 0 0 1017.4 - 0.0 - - 10 - - - -
25/08:00am 17.7 CALM 0 0 1017.0 - 0.0 - - 10 - - - -
25/07:30am 15.4 CALM 0 0 1016.6 - 0.0 - Partly cloudy 10 - - - -
25/07:00am 14.6 CALM 0 0 1016.3 - 0.0 - - 10 - - - -
25/06:30am 14.7 CALM 0 0 1015.9 - 0.0 - - 10 - - - -
25/06:00am 14.8 CALM 0 0 1015.5 - 0.0 - - 10 - - - -
25/05:30am 14.9 CALM 0 0 1015.1 - 0.0 - Partly cloudy 7 - - - -
25/05:06am 15.1 CALM 0 0 1015.0 - 0.0 - Partly cloudy 10 - - - -
25/05:00am 15.2 CALM 0 0 1015.0 - 0.0 - Partly cloudy 10 - - - -
25/04:59am 15.2 CALM 0 0 1015.0 - 0.0 - Partly cloudy 10 - - - -
25/04:43am 15.4 CALM 0 0 1015.0 - 0.0 - Partly cloudy 5 - - - -
25/04:32am 15.5 CALM 0 0 1015.0 - 0.0 - Partly cloudy 5 - - - -
25/04:30am 15.5 CALM 0 0 1015.0 - 0.0 - Partly cloudy 10 - - - -
25/04:00am 16.0 CALM 0 0 1015.1 - 0.0 - Partly cloudy 10 - - - -
25/03:30am 16.1 CALM 0 0 1015.2 - 0.0 - - 10 - - - -
25/03:00am 16.5 CALM 0 0 1014.9 - 0.0 - - 10 - - - -
25/02:30am 16.6 CALM 0 0 1015.1 - 0.0 - - 10 - - - -
25/02:00am 16.9 CALM 0 0 1015.3 - 0.0 - - 10 - - - -
25/01:30am 17.3 CALM 0 0 1015.4 - 0.0 - - 10 - - - -
25/01:00am 17.3 CALM 0 0 1015.8 - 0.0 - - 10 - - - -
25/12:30am 17.6 E 2 4 1015.8 - 0.0 - - 10 - - - -
25/12:00am 17.8 E 3 4 1015.9 - 0.0 - - 10 - - - -
 
Date/Time
CST
Temp

°C
Wind Pressure Rain
since 9am
mm
Weather Cloud Vis
km
Sea
Height
m
Swell
Dir
 
Speed
knots
Gust
knots
hPa Trend Height
m
Period
s
Dir
24/11:30pm 18.0 E 2 4 1016.3 - 0.0 - - 10 - - - -
24/11:00pm 18.1 CALM 0 0 1016.4 - 0.0 - - 10 - - - -
24/10:30pm 18.5 E 3 4 1016.4 - 0.0 - - 10 - - - -
24/10:00pm 19.2 SSE 1 3 1016.2 - 0.0 - - 10 - - - -
24/09:30pm 19.6 CALM 0 0 1016.2 - 0.0 - - 10 - - - -
24/09:00pm 19.8 CALM 0 0 1015.6 - 0.0 - - 10 - - - -
24/08:30pm 20.2 CALM 0 0 1015.5 - 0.0 - - 10 - - - -
24/08:00pm 20.7 CALM 0 0 1015.2 - 0.0 - - 10 - - - -
24/07:30pm 21.5 CALM 0 0 1014.8 - 0.0 - - 10 - - - -
24/07:00pm 22.6 ESE 2 3 1014.4 - 0.0 - - 10 - - - -
24/06:30pm 23.6 E 5 6 1013.9 - 0.0 - - 10 - - - -
24/06:00pm 24.2 E 9 12 1013.6 - 0.0 - - 10 - - - -
24/05:30pm 24.7 E 9 13 1013.2 - 0.0 - Partly cloudy 10 - - - -
24/05:00pm 25.2 E 8 11 1013.1 - 0.0 - Partly cloudy 10 - - - -
24/04:30pm 25.8 NE 6 7 1012.9 - 0.0 - Partly cloudy 10 - - - -
24/04:00pm 25.8 CALM 0 3 1012.8 - 0.0 - Partly cloudy 10 - - - -
24/03:30pm 25.8 WNW 5 9 1012.8 - 0.0 - Partly cloudy 10 - - - -
24/03:00pm 25.1 W 5 8 1012.9 - 0.0 - Cloudy 10 - - - -
24/02:30pm 25.1 W 6 9 1013.1 - 0.0 - Partly cloudy 10 - - - -
24/02:00pm 25.5 W 7 10 1013.3 - 0.0 - Partly cloudy 10 - - - -
24/01:30pm 26.4 WNW 8 11 1013.7 - 0.0 - Partly cloudy 10 - - - -
24/01:00pm 25.6 W 7 10 1014.1 - 0.0 - Partly cloudy 10 - - - -
24/12:30pm 26.5 SW 3 7 1014.6 - 0.0 - Partly cloudy 10 - - - -
24/12:00pm 27.7 ENE 5 10 1014.8 - 0.0 - Partly cloudy 10 - - - -
24/11:30am 26.8 E 6 10 1015.3 - 0.0 - Partly cloudy 10 - - - -
24/11:00am 26.5 ENE 6 9 1015.5 - 0.0 - - 10 - - - -
24/10:30am 26.2 E 8 11 1015.6 - 0.0 - - 10 - - - -
24/10:00am 24.9 ENE 5 7 1015.8 - 0.0 - - 10 - - - -
24/09:30am 23.0 E 3 5 1015.7 - 0.0 - - 10 - - - -
24/09:00am 21.6 ENE 2 5 1015.5 - 0.0 - - 10 - - - -
24/08:30am 18.6 CALM 0 0 1015.7 - 0.0 - - 10 - - - -
24/08:00am 17.0 CALM 0 0 1015.3 - 0.0 - - 10 - - - -
24/07:30am 15.6 CALM 0 0 1014.8 - 0.0 - - 10 - - - -
24/07:08am 14.8 CALM 0 0 1014.3 - 0.0 - Partly cloudy 10 - - - -
24/07:00am 14.9 CALM 0 0 1014.1 - 0.0 - Partly cloudy 10 - - - -
24/06:53am 15.0 CALM 0 0 1014.1 - 0.0 - Partly cloudy 10 - - - -
24/06:49am 15.0 CALM 0 0 1014.0 - 0.0 - Partly cloudy 10 - - - -
24/06:39am 14.9 CALM 0 0 1013.9 - 0.0 - Partly cloudy 10 - - - -
24/06:30am 14.9 CALM 0 0 1013.8 - 0.0 - Partly cloudy 8 - - - -
24/06:15am 14.7 CALM 0 0 1013.8 - 0.0 - Cloudy 1 - - - -
24/06:05am 14.8 CALM 0 0 1013.7 - 0.0 - Cloudy 0.8 - - - -
24/06:01am 14.9 CALM 0 0 1013.6 - 0.0 - Cloudy 5 - - - -
24/06:00am 14.9 CALM 0 0 1013.5 - 0.0 - Cloudy 9 - - - -
24/05:30am 15.1 CALM 0 0 1013.5 - 0.0 - Partly cloudy 10 - - - -
24/05:22am 15.2 CALM 0 0 1013.5 - 0.0 - Partly cloudy 10 - - - -
24/05:10am 15.1 CALM 0 0 1013.5 - 0.0 - Partly cloudy 10 - - - -
24/05:08am 15.1 CALM 0 0 1013.5 - 0.0 - Partly cloudy 10 - - - -
24/05:00am 15.1 CALM 0 0 1013.5 - 0.0 - Partly cloudy 10 - - - -
24/04:42am 15.2 E 2 4 1013.5 - 0.0 - Partly cloudy 4 - - - -
24/04:39am 15.3 ESE 2 4 1013.5 - 0.0 - Partly cloudy 10 - - - -
24/04:30am 15.3 CALM 0 0 1013.5 - 0.0 - Partly cloudy 10 - - - -
24/04:00am 15.6 ESE 2 3 1013.5 - 0.0 - - 10 - - - -
24/03:30am 16.0 ESE 2 3 1013.4 - 0.0 - - 10 - - - -
24/03:00am 16.2 CALM 0 0 1013.6 - 0.0 - - 10 - - - -
24/02:30am 16.2 E 4 5 1013.7 - 0.0 - - 10 - - - -
24/02:00am 16.9 ENE 3 4 1014.1 - 0.0 - - 10 - - - -
24/01:30am 17.2 CALM 0 0 1014.3 - 0.0 - - 10 - - - -
24/01:00am 17.5 CALM 0 0 1014.5 - 0.0 - - 10 - - - -
24/12:30am 17.8 CALM 0 0 1014.4 - 0.0 - - 10 - - - -
24/12:00am 18.7 CALM 0 0 1014.4 - 0.0 - - 10 - - - -
 
Date/Time
CST
Temp

°C
Wind Pressure Rain
since 9am
mm
Weather Cloud Vis
km
Sea
Height
m
Swell
Dir
 
Speed
knots
Gust
knots
hPa Trend Height
m
Period
s
Dir
23/11:30pm 18.7 ENE 3 4 1014.3 - 0.0 - - 10 - - - -
23/11:00pm 18.6 E 3 4 1014.6 - 0.0 - - 10 - - - -
23/10:30pm 18.9 E 4 5 1014.8 - 0.0 - - 10 - - - -
23/10:00pm 19.4 E 4 5 1014.9 - 0.0 - - 10 - - - -
23/09:30pm 20.0 E 3 5 1015.0 - 0.0 - - 10 - - - -
23/09:00pm 20.7 E 3 4 1014.7 - 0.0 - - 10 - - - -
23/08:30pm 20.8 ESE 4 5 1014.5 - 0.0 - Partly cloudy 10 - - - -
23/08:00pm 21.1 CALM 0 0 1014.1 - 0.0 - Partly cloudy 10 - - - -
23/07:30pm 22.2 ESE 3 4 1013.7 - 0.0 - - 10 - - - -
23/07:00pm 23.0 ESE 3 5 1013.5 - 0.0 - - 10 - - - -
23/06:30pm 24.1 ESE 4 5 1013.2 - 0.0 - Partly cloudy 10 - - - -
23/06:00pm 25.1 E 6 8 1012.7 - 0.0 - Mostly cloudy 10 - - - -
23/05:30pm 25.4 W 4 6 1012.6 - 0.0 - Partly cloudy 10 - - - -
23/05:00pm 25.3 W 7 11 1012.5 - 0.0 - Partly cloudy 10 - - - -
23/04:30pm 24.9 SW 7 10 1012.4 - 0.0 - Partly cloudy 10 - - - -
23/04:00pm 25.0 SW 5 9 1012.4 - 0.0 - Partly cloudy 10 - - - -
23/03:30pm 26.4 W 8 12 1012.3 - 0.0 - Partly cloudy 10 - - - -
23/03:00pm 25.9 W 8 12 1012.2 - 0.0 - Cloudy 10 - - - -
23/02:30pm 25.8 WSW 9 12 1012.6 - 0.0 - - 10 - - - -
23/02:00pm 25.3 W 10 15 1013.1 - 0.0 - Partly cloudy 10 - - - -
23/01:30pm 26.2 W 10 15 1013.4 - 0.0 - Partly cloudy 10 - - - -
23/01:00pm 26.1 W 11 18 1013.6 - 0.0 - Partly cloudy 10 - - - -
23/12:30pm 26.8 E 9 15 1014.1 - 0.0 - - 10 - - - -
23/12:00pm 27.3 E 7 12 1014.5 - 0.0 - Partly cloudy 10 - - - -
23/11:30am 27.3 E 8 12 1015.2 - 0.0 - Partly cloudy 10 - - - -
23/11:00am 26.8 E 9 13 1015.6 - 0.0 - Partly cloudy 10 - - - -
23/10:30am 26.8 E 10 13 1015.9 - 0.0 - Partly cloudy 10 - - - -
23/10:00am 26.4 E 10 14 1016.1 - 0.0 - - 10 - - - -
23/09:30am 25.0 E 5 6 1016.1 - 0.0 - - 10 - - - -
23/09:00am 22.0 ESE 2 5 1015.8 - 0.0 - - 10 - - - -
23/08:30am 19.3 CALM 0 0 1015.7 - 0.0 - - 10 - - - -
23/08:00am 16.4 CALM 0 0 1015.5 - 0.0 - - 10 - - - -
23/07:30am 13.5 CALM 0 0 1015.3 - 0.0 - - 10 - - - -
23/07:00am 12.3 E 2 3 1015.0 - 0.0 - - 10 - - - -
23/06:30am 12.3 E 3 4 1014.8 - 0.0 - - 10 - - - -
23/06:00am 12.4 E 1 3 1014.5 - 0.0 - - 10 - - - -
23/05:43am 12.3 ESE 2 3 1014.5 - 0.0 - Partly cloudy 10 - - - -
23/05:30am 12.2 CALM 0 0 1014.4 - 0.0 - Partly cloudy 10 - - - -
23/05:00am 12.5 CALM 0 1 1014.5 - 0.0 - Partly cloudy 10 - - - -
23/04:58am 12.5 CALM 0 3 1014.5 - 0.0 - Partly cloudy 10 - - - -
23/04:30am 12.8 E 3 4 1014.5 - 0.0 - - 10 - - - -
23/04:00am 12.9 E 2 4 1014.4 - 0.0 - - 10 - - - -
23/03:30am 13.2 ESE 2 3 1014.6 - 0.0 - Partly cloudy 10 - - - -
23/03:24am 13.1 CALM 0 3 1014.6 - 0.0 - Partly cloudy 10 - - - -

Other Formats:

Comma delimited format used in spreadsheet applications
http://www.bom.gov.au/fwo/IDD60701/IDD60701.94153.axf

JavaScript Object Notation format (JSON) in row-major order
http://www.bom.gov.au/fwo/IDD60701/IDD60701.94153.json